createdAt,value
2022-10-03T00:02:36.022Z,6.75
2022-10-03T00:07:47.105Z,6.80
2022-10-03T00:13:21.279Z,4.95
2022-10-03T00:18:34.337Z,8.07
2022-10-03T00:23:55.751Z,8.20
2022-10-03T00:29:12.329Z,7.40
2022-10-03T00:34:35.614Z,4.63
2022-10-03T00:39:50.879Z,13.63
2022-10-03T00:45:21.185Z,6.97
2022-10-03T00:50:35.722Z,3.75
2022-10-03T00:56:00.888Z,10.68
2022-10-03T01:01:22.101Z,6.32
2022-10-03T01:06:30.753Z,7.40
2022-10-03T01:16:42.574Z,7.60
2022-10-03T01:21:57.874Z,3.35
2022-10-03T01:26:58.683Z,5.15
2022-10-03T01:32:15.020Z,7.03
2022-10-03T01:37:37.953Z,5.13
2022-10-03T01:42:53.051Z,8.30
2022-10-03T01:47:58.425Z,5.32
2022-10-03T01:53:17.755Z,4.28
2022-10-03T01:58:27.352Z,4.90
2022-10-03T02:03:31.721Z,4.03
2022-10-03T02:08:43.717Z,8.45
2022-10-03T02:14:00.879Z,5.00
2022-10-03T02:19:06.882Z,7.97
2022-10-03T02:24:15.186Z,11.80
2022-10-03T02:29:33.038Z,6.13
2022-10-03T02:34:56.884Z,5.97
2022-10-03T02:40:02.124Z,6.32
2022-10-03T02:45:07.710Z,4.47
2022-10-03T02:50:07.036Z,8.90
2022-10-03T02:55:31.210Z,3.95
2022-10-03T03:01:02.655Z,7.88
2022-10-03T03:06:23.343Z,7.65
2022-10-03T03:11:43.844Z,10.02
2022-10-03T03:17:14.170Z,15.63
2022-10-03T03:22:34.970Z,20.20
2022-10-03T03:27:54.253Z,16.70
2022-10-03T03:33:09.358Z,20.38
2022-10-03T03:38:20.537Z,15.00
2022-10-03T03:43:56.079Z,12.90
2022-10-03T03:49:23.380Z,11.07
2022-10-03T03:54:32.840Z,15.00
2022-10-03T04:00:13.106Z,17.20
2022-10-03T04:05:39.161Z,12.43
2022-10-03T04:11:06.862Z,32.75
2022-10-03T04:16:59.304Z,19.48
2022-10-03T04:22:29.975Z,11.70
2022-10-03T04:27:26.307Z,16.38
2022-10-03T04:32:41.881Z,17.92
2022-10-03T04:37:58.592Z,49.45
2022-10-03T04:43:27.303Z,53.97
2022-10-03T04:48:40.173Z,24.70
2022-10-03T04:53:56.788Z,67.68
2022-10-03T04:59:38.836Z,33.88
2022-10-03T05:05:12.934Z,27.73
2022-10-03T05:10:39.850Z,13.77
2022-10-03T05:16:02.378Z,56.97
2022-10-03T05:21:06.071Z,31.50
2022-10-03T05:26:44.087Z,40.45
2022-10-03T05:32:00.938Z,18.08
2022-10-03T05:37:00.255Z,67.88
2022-10-03T05:42:22.777Z,28.58
2022-10-03T05:47:44.874Z,24.70
2022-10-03T05:52:55.834Z,27.40
2022-10-03T05:58:20.421Z,28.95
2022-10-03T06:03:44.132Z,20.35
2022-10-03T06:08:55.537Z,43.10
2022-10-03T06:14:13.889Z,45.17
2022-10-03T06:19:38.326Z,44.30
2022-10-03T06:25:18.389Z,55.63
2022-10-03T06:30:22.403Z,52.22
2022-10-03T06:35:43.525Z,39.60
2022-10-03T06:41:09.206Z,25.23
2022-10-03T06:46:12.098Z,52.85
2022-10-03T06:51:31.126Z,36.50
2022-10-03T06:56:31.836Z,32.20
2022-10-03T07:02:06.474Z,17.65
2022-10-03T07:07:21.605Z,36.88
2022-10-03T07:13:04.927Z,23.70
2022-10-03T07:18:13.728Z,27.80
2022-10-03T07:23:47.730Z,35.78
2022-10-03T07:29:06.187Z,55.92
2022-10-03T07:39:26.111Z,49.90
2022-10-03T07:44:44.126Z,44.08
2022-10-03T07:50:19.721Z,38.05
2022-10-03T07:55:43.160Z,40.70
2022-10-03T08:01:10.438Z,23.35
2022-10-03T08:06:17.240Z,21.88
2022-10-03T08:11:22.785Z,40.40
2022-10-03T08:17:02.814Z,50.35
2022-10-03T08:22:32.810Z,32.65
2022-10-03T08:27:58.815Z,27.65
2022-10-03T08:33:28.384Z,22.80
2022-10-03T08:38:37.517Z,25.23
2022-10-03T08:43:51.916Z,20.77
2022-10-03T08:49:15.180Z,43.75
2022-10-03T08:54:34.081Z,25.88
2022-10-03T09:00:03.830Z,43.17
2022-10-03T09:05:41.940Z,24.48
2022-10-03T09:11:16.701Z,20.73
2022-10-03T09:16:51.346Z,29.77
2022-10-03T09:22:32.877Z,27.85
2022-10-03T09:28:23.166Z,28.55
2022-10-03T09:33:39.721Z,23.73
2022-10-03T09:38:55.233Z,26.05
2022-10-03T09:44:12.849Z,20.60
2022-10-03T09:49:38.813Z,30.57
2022-10-03T09:55:01.499Z,29.02
2022-10-03T10:00:19.174Z,18.10
2022-10-03T10:05:49.373Z,14.95
2022-10-03T10:10:51.833Z,21.75
2022-10-03T10:16:29.824Z,15.88
2022-10-03T10:21:57.065Z,13.52
2022-10-03T10:27:18.015Z,14.43
2022-10-03T10:32:35.757Z,14.38
2022-10-03T10:38:03.326Z,16.98
2022-10-03T10:43:24.440Z,8.10
2022-10-03T10:49:03.519Z,16.25
2022-10-03T10:54:58.723Z,16.83
2022-10-03T11:00:15.254Z,9.27
2022-10-03T11:05:32.147Z,7.20
2022-10-03T11:10:39.613Z,11.93
2022-10-03T11:16:03.511Z,11.05
2022-10-03T11:21:24.396Z,7.70
2022-10-03T11:26:45.916Z,9.70
2022-10-03T11:32:14.330Z,9.98
2022-10-03T11:37:29.796Z,12.30
2022-10-03T11:42:54.213Z,13.25
2022-10-03T11:48:02.320Z,4.15
2022-10-03T11:53:12.098Z,9.40
2022-10-03T11:58:34.763Z,6.78
2022-10-03T12:03:38.740Z,6.38
2022-10-03T12:08:56.366Z,3.25
2022-10-03T12:14:23.510Z,5.07
2022-10-03T12:19:38.560Z,6.93
2022-10-03T12:24:37.445Z,7.30
2022-10-03T12:29:39.025Z,8.20
2022-10-03T12:34:50.297Z,6.35
2022-10-03T12:40:21.744Z,4.13
2022-10-03T12:45:36.216Z,4.95
2022-10-03T12:50:57.613Z,8.52
2022-10-03T12:56:32.070Z,4.50
2022-10-03T13:01:50.038Z,5.45
2022-10-03T13:12:07.608Z,5.97
2022-10-03T13:17:17.850Z,7.03
2022-10-03T13:22:14.140Z,1.70
2022-10-03T13:27:30.301Z,6.75
2022-10-03T13:32:29.465Z,6.35
2022-10-03T13:37:35.646Z,5.53
2022-10-03T13:42:45.236Z,6.18
2022-10-03T13:47:52.042Z,5.47
2022-10-03T13:53:06.944Z,5.57
2022-10-03T13:58:06.087Z,4.22
2022-10-03T14:03:23.780Z,7.57
2022-10-03T14:08:48.167Z,3.75
2022-10-03T14:13:53.482Z,7.97
2022-10-03T14:18:55.897Z,6.45
2022-10-03T14:24:11.235Z,7.20
2022-10-03T14:29:07.637Z,16.17
2022-10-03T14:34:15.350Z,11.93
2022-10-03T14:39:32.335Z,6.28
2022-10-03T14:44:38.923Z,6.47
2022-10-03T14:49:58.899Z,8.85
2022-10-03T14:54:57.395Z,4.70
2022-10-03T14:59:57.903Z,6.88
2022-10-03T15:05:01.860Z,4.93
2022-10-03T15:10:00.303Z,10.68
2022-10-03T15:15:02.911Z,4.38
2022-10-03T15:20:01.581Z,5.13
2022-10-03T15:25:05.916Z,5.80
2022-10-03T15:30:05.616Z,11.25
2022-10-03T15:35:04.362Z,6.45
2022-10-03T15:40:06.601Z,6.32
2022-10-03T15:45:06.648Z,4.53
2022-10-03T15:50:15.245Z,5.88
2022-10-03T15:55:31.490Z,6.00
2022-10-03T16:00:31.127Z,6.40
2022-10-03T16:05:27.812Z,6.80
2022-10-03T16:10:28.229Z,5.07
2022-10-03T16:15:43.552Z,7.00
2022-10-03T16:20:49.990Z,5.82
2022-10-03T16:25:55.615Z,3.38
2022-10-03T16:30:59.433Z,4.65
2022-10-03T16:36:02.929Z,9.60
2022-10-03T16:41:04.086Z,4.22
2022-10-03T16:46:04.928Z,6.53
2022-10-03T16:51:02.978Z,7.03
2022-10-03T16:56:07.200Z,4.65
2022-10-03T17:01:29.575Z,10.00
2022-10-03T17:06:34.936Z,5.18
2022-10-03T17:11:37.420Z,8.07
2022-10-03T17:17:28.168Z,3.80
2022-10-03T17:22:35.335Z,10.07
2022-10-03T17:27:41.414Z,4.88
2022-10-03T17:32:42.420Z,7.45
2022-10-03T17:38:19.701Z,3.75
2022-10-03T17:43:36.529Z,3.83
2022-10-03T17:48:46.264Z,6.32
2022-10-03T17:53:53.182Z,3.90
2022-10-03T17:58:59.942Z,3.28
2022-10-03T18:03:58.506Z,3.72
2022-10-03T18:08:56.126Z,5.28
2022-10-03T18:14:03.910Z,19.13
2022-10-03T18:19:21.744Z,20.63
2022-10-03T18:24:45.718Z,14.80
2022-10-03T18:29:57.479Z,11.60
2022-10-03T18:35:10.869Z,12.43
2022-10-03T18:40:19.898Z,9.68
2022-10-03T18:45:24.090Z,9.27
2022-10-03T18:50:32.622Z,7.65
2022-10-03T18:55:34.884Z,7.43
2022-10-03T19:00:42.455Z,6.78
2022-10-03T19:06:03.472Z,9.43
2022-10-03T19:11:19.522Z,9.77
2022-10-03T19:16:35.337Z,9.55
2022-10-03T19:21:39.211Z,7.25
2022-10-03T19:26:37.015Z,11.18
2022-10-03T19:31:44.142Z,10.03
2022-10-03T19:36:41.924Z,11.57
2022-10-03T19:41:53.354Z,11.37
2022-10-03T19:47:05.466Z,11.88
2022-10-03T19:52:17.283Z,9.50
2022-10-03T19:57:26.196Z,12.45
2022-10-03T20:02:24.933Z,7.88
2022-10-03T20:07:44.862Z,11.35
2022-10-03T20:12:45.552Z,8.27
2022-10-03T20:17:43.709Z,9.85
2022-10-03T20:22:41.710Z,10.25
2022-10-03T20:27:43.622Z,6.95
2022-10-03T20:32:45.317Z,7.28
2022-10-03T20:37:44.769Z,13.75
2022-10-03T20:42:46.901Z,16.92
2022-10-03T20:48:01.009Z,10.23
2022-10-03T20:53:03.728Z,12.82
2022-10-03T20:58:19.025Z,28.77
2022-10-03T21:03:34.998Z,21.70
2022-10-03T21:08:41.606Z,22.42
2022-10-03T21:13:51.924Z,20.20
2022-10-03T21:18:51.142Z,17.27
2022-10-03T21:24:06.711Z,15.50
2022-10-03T21:29:17.064Z,14.18
2022-10-03T21:34:26.511Z,16.25
2022-10-03T21:40:17.150Z,10.90
2022-10-03T21:45:47.666Z,11.95
2022-10-03T21:50:56.906Z,10.07
2022-10-03T21:56:00.189Z,10.73
2022-10-03T22:01:12.830Z,14.70
2022-10-03T22:06:17.456Z,9.57
2022-10-03T22:11:22.746Z,11.40
2022-10-03T22:16:32.487Z,6.43
2022-10-03T22:21:38.821Z,11.90
2022-10-03T22:26:47.920Z,8.60
2022-10-03T22:31:44.373Z,5.07
2022-10-03T22:36:42.288Z,11.40
2022-10-03T22:41:41.406Z,7.43
2022-10-03T22:46:41.918Z,17.75
2022-10-03T22:51:40.952Z,9.07
2022-10-03T22:56:48.118Z,6.45
2022-10-03T23:01:47.129Z,7.38
2022-10-03T23:07:00.391Z,8.82
2022-10-03T23:11:57.615Z,9.25
2022-10-03T23:17:05.054Z,12.90
2022-10-03T23:22:02.290Z,6.85
2022-10-03T23:27:39.654Z,16.50
2022-10-03T23:32:47.945Z,7.35
2022-10-03T23:37:46.965Z,15.32
2022-10-03T23:42:45.109Z,5.88
2022-10-03T23:47:59.417Z,8.55
2022-10-03T23:52:58.459Z,8.40
2022-10-03T23:57:55.611Z,9.57
